• Join FlightAware (Why Join?)
  • Login
  • US Flag 
12:53PM EST


 

Airport Tracker/Info


-or-


 

Live Flight TrackerFlight Track Log ✈ EGF4383 ✈ 28-Apr-2013 ✈ KCHO - KORD

Flight Track Log - Related Links

Times and Time Zones

All times are in EDT time to prevent confusion due to time zone crossing. See the EGF4383 flight status page for this flight to view local times or setup timezone preferences in your user account.

Time Position Orientation Groundspeed Altitude Reporting Facility
EDT Latitude Longitude Course Direction KTS MPH feet Rate Location/Type
05:14PM 38.0833 -78.4833 276° West 197 227 3,400  Level Potomac TRACON
05:15PM 38.0856 -78.5097 276° West 214 246 4,300 1,880 Climbing Washington Center
05:16PM 38.1192 -78.5847 300° West 259 298 6,000 2,622 Climbing Washington Center
05:17PM 38.1567 -78.6761 298° West 265 305 9,500 2,672 Climbing Washington Center
05:18PM 38.1919 -78.7594 298° West 265 305 11,300 1,574 Climbing Washington Center
05:19PM 38.2292 -78.8536 297° West 277 319 12,700 1,426 Climbing Washington Center
05:20PM 38.2722 -78.9533 299° West 303 349 14,200 1,678 Climbing Washington Center
05:21PM 38.3092 -79.0450 297° West 319 367 16,000 1,881 Climbing Washington Center
05:22PM 38.3500 -79.1475 297° West 324 373 17,900 1,574 Climbing Washington Center
05:23PM 38.3928 -79.2503 298° West 329 379 19,200 1,412 Climbing Washington Center
05:24PM 38.4353 -79.3556 297° West 329 379 20,700 1,563 Climbing Washington Center
05:25PM 38.4839 -79.4722 298° West 329 379 22,300 1,131 Climbing Washington Center
05:26PM 38.5281 -79.5886 296° West 335 386 23,000 347 Climbing Washington Center
05:27PM 38.5758 -79.7108 297° West 363 418 23,000  Level Washington Center
05:28PM 38.6239 -79.8278 298° West 400 460 23,000 303 Level Washington Center
05:29PM 38.6778 -79.9531 299° West 410 472 23,600 492 Climbing Washington Center
05:30PM 38.7253 -80.0808 296° West 410 472 24,000 851 Climbing Washington Center
05:31PM 38.7853 -80.2322 297° West 402 463 25,500 1,333 Climbing Indianapolis Center
05:32PM 38.8342 -80.3542 297° West 386 444 27,000 1,210 Climbing Indianapolis Center
05:33PM 38.8900 -80.4978 297° West 377 434 28,000 484 Climbing Indianapolis Center
05:34PM 38.9381 -80.6203 297° West 385 443 28,000  Level Indianapolis Center
05:35PM 38.9861 -80.7422 297° West 385 443 28,000  Level Indianapolis Center
05:36PM 39.0358 -80.8636 298° West 385 443 28,000 532 Level Indianapolis Center
05:37PM 39.0844 -80.9825 298° West 380 437 29,100 1,210 Climbing Indianapolis Center
05:38PM 39.1319 -81.0983 298° West 368 423 30,500 1,548 Climbing Indianapolis Center
05:39PM 39.1892 -81.2344 299° West 363 418 32,300 1,403 Climbing Indianapolis Center
05:40PM 39.2350 -81.3475 298° West 359 413 33,400 1,016 Climbing Indianapolis Center
05:41PM 39.2806 -81.4614 297° West 359 413 34,400 919 Climbing Indianapolis Center
05:42PM 39.3272 -81.5756 298° West 361 415 35,300 774 Climbing Indianapolis Center
05:43PM 39.3722 -81.6850 298° West 349 402 36,000 339 Climbing Indianapolis Center
05:44PM 39.4161 -81.7936 298° West 343 395 36,000  Level Indianapolis Center
05:45PM 39.4675 -81.9236 297° West 340 391 36,000  Level Indianapolis Center
05:46PM 39.5111 -82.0339 297° West 345 397 36,000  Level Indianapolis Center
05:47PM 39.5544 -82.1406 298° West 338 389 36,000 -435 Level Indianapolis Center
05:48PM 39.5989 -82.2544 297° West 350 403 35,100 -532 Descending Indianapolis Center
05:49PM 39.6458 -82.3717 298° West 362 417 34,900 -49 Descending Indianapolis Center
05:50PM 39.6917 -82.4881 297° West 359 413 35,000 49 Climbing Indianapolis Center
05:51PM 39.7453 -82.6247 297° West 360 414 35,000  Level Indianapolis Center
05:52PM 39.7925 -82.7436 297° West 366 421 35,000  Level Indianapolis Center
05:53PM 39.8389 -82.8628 297° West 369 425 35,000  Level Indianapolis Center
05:54PM 39.8856 -82.9853 296° West 375 432 35,000  Level Indianapolis Center
05:56PM 39.9331 -83.1081 297° West 378 435 35,000  Level Indianapolis Center
05:57PM 39.9819 -83.2311 297° West 381 438 35,000  Level Indianapolis Center
05:58PM 40.0286 -83.3544 296° West 382 440 35,000 -97 Level Indianapolis Center
05:59PM 40.0839 -83.5008 296° West 386 444 34,800 -484 Descending Indianapolis Center
06:00PM 40.1308 -83.6264 296° West 386 444 34,000 -387 Descending Indianapolis Center
06:01PM 40.1797 -83.7542 297° West 391 450 34,000  Level Indianapolis Center
06:02PM 40.2283 -83.8831 296° West 392 451 34,000  Level Indianapolis Center
06:03PM 40.2764 -84.0131 296° West 394 453 34,000  Level Indianapolis Center
06:04PM 40.3428 -84.1317 306° West 403 464 34,000  Level Indianapolis Center
06:05PM 40.4269 -84.2697 309° West 413 475 34,000  Level Indianapolis Center
06:06PM 40.5006 -84.3903 309° West 420 483 34,000  Level Indianapolis Center
06:07PM 40.5750 -84.5125 309° West 424 488 34,000  Level Indianapolis Center
06:08PM 40.6489 -84.6356 308° West 425 489 34,000  Level Indianapolis Center
06:08PM 40.6761 -84.6800 309° West 424 488 34,000  Level Chicago Center
06:09PM 40.7497 -84.8017 309° West 425 489 34,000  Level Chicago Center
06:10PM 40.8211 -84.9219 308° West 420 483 34,000  Level Chicago Center
06:11PM 40.8864 -85.0500 304° West 420 483 34,000 -145 Level Chicago Center
06:12PM 40.9528 -85.2161 298° West 424 488 33,700 -624 Descending Chicago Center
06:13PM 41.0081 -85.3500 299° West 418 481 32,700 -1,056 Descending Chicago Center
06:15PM 41.0628 -85.4850 298° West 415 478 31,500 -1,984 Descending Chicago Center
06:16PM 41.1178 -85.6225 298° West 419 482 28,600 -2,296 Descending Chicago Center
06:17PM 41.2147 -85.8608 298° West 427 491 25,300 -1,742 Descending Indianapolis Center
06:18PM 41.2303 -85.9006 298° West 430 495 25,000 -977 Descending Chicago Center
06:19PM 41.2850 -86.0397 298° West 425 489 23,900 -1,452 Descending Chicago Center
06:20PM 41.3297 -86.2172 289° West 420 483 22,000 -1,694 Descending Chicago Center
06:21PM 41.3647 -86.3608 288° West 408 470 20,400 -1,500 Descending Chicago Center
06:22PM 41.3997 -86.5008 288° West 401 461 18,900 -1,500 Descending Chicago Center
06:23PM 41.4333 -86.6381 288° West 392 451 17,300 -1,258 Descending Chicago Center
06:24PM 41.4669 -86.7756 288° West 379 436 16,300 -1,355 Descending Chicago Center
06:25PM 41.5000 -86.9044 289° West 371 427 14,500 -1,548 Descending Chicago Center
06:26PM 41.5361 -87.0522 288° West 354 407 13,100 -1,152 Descending Chicago Center
06:27PM 41.5667 -87.1833 287° West 356 410 12,100 -634 Descending Chicago TRACON
06:28PM 41.6167 -87.3000 300° West 348 400 11,800 -650 Descending Chicago TRACON
06:29PM 41.6833 -87.4000 312° West 340 391 10,800 -900 Descending Chicago TRACON
06:30PM 41.7333 -87.5000 304° West 337 388 10,000 -400 Descending Chicago TRACON
06:31PM 41.7833 -87.5833 309° West 305 351 10,000 -800 Level Chicago TRACON
06:32PM 41.8333 -87.6667 309° West 267 307 8,400 -1,474 Descending Chicago TRACON
06:33PM 41.9000 -87.6833 349° North 257 296 7,200 -730 Descending Chicago TRACON
06:34PM 41.9667 -87.7000 349° North 224 258 7,000 -942 Descending Chicago TRACON
06:35PM 42.0167 -87.7000 360° North 216 249 5,300 -1,900 Descending Chicago TRACON
06:36PM 42.0667 -87.7500 323° Northwest 212 244 3,200 -1,400 Descending Chicago TRACON
06:37PM 42.0500 -87.8167 251° West 193 222 2,500 -900 Descending Chicago TRACON
06:38PM 42.0167 -87.8667 228° Southwest 163 188 1,400 -1,100 Descending Chicago TRACON
06:40PM 41.9817 -87.9067 304° West  Level Estimated
06:47PM 41.9817 -87.9067 304° West  Level Estimated